Time;durP1;ratioP1;P1;durP2;ratioP2;P2;SDS_P1;SDS_P2;PMS_P1;PMS_P2;Temp;Humidity;BMP_temperature;BMP_pressure;BME280_temperature;BME280_humidity;BME280_pressure;Samples;Min_cycle;Max_cycle;Signal;HPM_P1;HPM_P2
2023/07/04 00:01:10;;;;;;;3.00;1.97;;;;;;;18.89;66.83;98562.63;5143898;27;42500;-84
2023/07/04 00:03:39;;;;;;;1.90;1.80;;;;;;;18.77;67.48;98541.56;5124635;27;40971;-85
2023/07/04 00:06:10;;;;;;;2.80;1.80;;;;;;;18.87;67.37;98559.25;5120567;27;40711;-86
2023/07/04 00:08:39;;;;;;;2.37;1.83;;;;;;;18.74;67.22;98542.72;5120009;27;43476;-85
2023/07/04 00:11:09;;;;;;;2.70;2.00;;;;;;;18.72;67.12;98544.72;5137351;27;42178;-85
2023/07/04 00:13:38;;;;;;;2.50;1.83;;;;;;;18.80;67.13;98563.53;5119732;27;40220;-85
2023/07/04 00:16:07;;;;;;;3.37;2.20;;;;;;;18.64;68.35;98541.97;5120218;27;41872;-83
2023/07/04 00:18:36;;;;;;;3.60;2.33;;;;;;;18.76;68.50;98546.09;5119821;27;41722;-85
2023/07/04 00:21:07;;;;;;;2.47;2.27;;;;;;;18.76;68.25;98551.47;5120231;27;42070;-85
2023/07/04 00:23:37;;;;;;;2.37;2.00;;;;;;;18.74;68.12;98553.44;5119128;27;40561;-85
2023/07/04 00:26:08;;;;;;;3.40;2.00;;;;;;;18.55;68.35;98521.38;5120137;27;42211;-86
2023/07/04 00:28:38;;;;;;;3.67;1.80;;;;;;;18.34;68.17;98502.94;5137263;27;41842;-84
2023/07/04 00:31:07;;;;;;;2.33;2.10;;;;;;;18.58;68.50;98542.56;5120303;27;41248;-85
2023/07/04 00:33:35;;;;;;;3.30;2.30;;;;;;;18.57;68.82;98538.16;5119733;27;39976;-85
2023/07/04 00:36:05;;;;;;;3.07;2.43;;;;;;;18.62;69.42;98554.69;5119653;27;40715;-85
2023/07/04 00:38:33;;;;;;;2.77;2.00;;;;;;;18.53;68.90;98544.84;5119643;27;41656;-85
2023/07/04 00:41:03;;;;;;;3.43;2.20;;;;;;;18.53;68.70;98550.22;5119783;27;41168;-85
2023/07/04 00:43:57;;;;;;;2.30;2.00;;;;;;;18.58;68.83;98569.38;5119818;27;40737;-85
2023/07/04 00:46:37;;;;;;;2.53;1.93;;;;;;;18.31;69.52;98536.25;5120187;27;40995;-85
2023/07/04 00:49:08;;;;;;;5.07;2.10;;;;;;;18.49;68.98;98572.97;5120051;27;41974;-85
2023/07/04 00:51:36;;;;;;;3.20;2.43;;;;;;;18.43;69.35;98565.50;5133862;27;42173;-85
2023/07/04 00:54:04;;;;;;;2.57;2.17;;;;;;;18.37;68.96;98556.25;5119528;27;40881;-85
2023/07/04 00:56:32;;;;;;;3.40;2.00;;;;;;;18.33;68.79;98548.66;5120078;27;40634;-84
2023/07/04 00:59:01;;;;;;;2.47;1.90;;;;;;;18.39;68.96;98564.16;5119243;27;41471;-84
2023/07/04 01:01:29;;;;;;;2.00;1.80;;;;;;;18.34;68.63;98556.56;5119805;27;41250;-85
2023/07/04 01:04:00;;;;;;;3.10;2.03;;;;;;;18.31;69.04;98551.50;5119663;27;40110;-85
2023/07/04 01:06:35;;;;;;;2.53;1.90;;;;;;;18.30;68.51;98561.38;5119674;27;40779;-85
2023/07/04 01:09:07;;;;;;;3.07;2.07;;;;;;;18.24;69.04;98559.31;5134556;27;42933;-86
2023/07/04 01:11:44;;;;;;;2.90;1.90;;;;;;;18.21;69.61;98554.25;5119384;27;41344;-85
2023/07/04 01:14:35;;;;;;;2.30;2.10;;;;;;;18.31;69.43;98579.13;5119425;27;40273;-86
2023/07/04 01:17:06;;;;;;;2.40;2.20;;;;;;;18.13;69.06;98554.16;5136423;27;42210;-87
2023/07/04 01:19:39;;;;;;;2.93;2.10;;;;;;;18.15;69.65;98562.91;5119058;27;41327;-87
2023/07/04 01:22:31;;;;;;;5.67;2.13;;;;;;;18.12;70.47;98563.19;5136383;27;42114;-86
2023/07/04 01:25:10;;;;;;;2.97;1.90;;;;;;;17.96;70.08;98538.88;5118898;27;41689;-86
2023/07/04 01:27:42;;;;;;;2.60;2.27;;;;;;;18.19;70.08;98576.81;5119039;27;40517;-87
2023/07/04 01:30:11;;;;;;;2.07;1.67;;;;;;;18.06;70.29;98557.56;5135200;27;43733;-86
2023/07/04 01:32:40;;;;;;;3.77;2.40;;;;;;;18.04;70.18;98560.44;5118946;27;41285;-86
2023/07/04 01:35:12;;;;;;;4.70;2.40;;;;;;;18.08;70.58;98577.88;5118849;27;40359;-85
2023/07/04 01:37:40;;;;;;;4.57;2.57;;;;;;;18.07;70.55;98575.34;5118581;27;40920;-85
2023/07/04 01:40:09;;;;;;;3.30;2.27;;;;;;;17.94;71.09;98565.81;5135757;27;42706;-85
2023/07/04 01:42:38;;;;;;;4.67;2.43;;;;;;;17.93;71.07;98557.94;5135634;27;42358;-86
2023/07/04 01:45:09;;;;;;;3.57;2.50;;;;;;;17.88;71.21;98560.22;5118944;27;39957;-85
2023/07/04 01:47:38;;;;;;;2.90;2.10;;;;;;;17.90;71.31;98563.63;5118026;27;40809;-85
2023/07/04 01:50:09;;;;;;;4.07;2.30;;;;;;;17.94;72.03;98586.41;5118142;27;41965;-86
2023/07/04 01:52:37;;;;;;;3.30;2.07;;;;;;;17.81;72.49;98575.19;5118582;27;42609;-86
2023/07/04 01:55:06;;;;;;;4.30;2.90;;;;;;;17.81;72.45;98578.72;5118570;27;41154;-85
2023/07/04 01:57:35;;;;;;;4.40;2.20;;;;;;;17.85;72.53;98590.00;5118585;27;40650;-85
2023/07/04 02:00:04;;;;;;;3.93;2.43;;;;;;;17.81;72.61;98588.59;5118308;27;42859;-86
2023/07/04 02:02:54;;;;;;;3.13;2.20;;;;;;;17.78;72.84;98587.06;5135508;27;41365;-86
2023/07/04 02:05:22;;;;;;;5.40;2.90;;;;;;;17.79;73.04;98593.28;5135530;27;39890;-85
2023/07/04 02:07:50;;;;;;;3.23;2.27;;;;;;;17.66;73.15;98582.06;5118198;27;40708;-86
2023/07/04 02:10:17;;;;;;;3.60;2.17;;;;;;;17.57;73.13;98567.66;5118159;27;41760;-84
2023/07/04 02:12:45;;;;;;;3.67;2.40;;;;;;;17.64;73.41;98584.03;5117925;27;42566;-84
2023/07/04 02:15:13;;;;;;;3.93;2.40;;;;;;;17.58;73.84;98583.56;5117987;27;39953;-85
2023/07/04 02:17:42;;;;;;;4.67;2.50;;;;;;;17.56;73.86;98579.34;5118138;27;40757;-85
2023/07/04 02:20:13;;;;;;;3.90;2.37;;;;;;;17.57;73.57;98583.72;5118070;27;41805;-86
2023/07/04 02:22:43;;;;;;;2.47;2.27;;;;;;;17.65;73.44;98601.78;5118243;27;42522;-85
2023/07/04 02:25:11;;;;;;;2.77;2.03;;;;;;;17.60;72.90;98600.34;5118057;27;39862;-85
2023/07/04 02:27:40;;;;;;;2.60;2.13;;;;;;;17.45;72.80;98575.03;5118149;27;40614;-86
2023/07/04 02:30:09;;;;;;;2.60;2.10;;;;;;;17.53;72.78;98593.91;5117779;27;42843;-85
2023/07/04 02:32:37;;;;;;;3.80;2.50;;;;;;;17.40;73.42;98577.31;5117936;27;43541;-85
2023/07/04 02:35:07;;;;;;;4.10;2.30;;;;;;;17.45;73.19;98584.88;5117332;27;41371;-86
2023/07/04 02:37:38;;;;;;;3.03;2.50;;;;;;;17.45;73.56;98591.09;5118010;27;41004;-85
2023/07/04 02:40:07;;;;;;;2.50;2.20;;;;;;;17.33;73.56;98578.88;5135088;27;42506;-84
2023/07/04 02:42:35;;;;;;;3.53;2.77;;;;;;;17.44;73.60;98597.44;5117908;27;41095;-85
2023/07/04 02:45:03;;;;;;;3.73;2.40;;;;;;;17.31;74.28;98575.50;5117941;27;40677;-85
2023/07/04 02:47:32;;;;;;;3.70;2.53;;;;;;;17.29;74.40;98585.53;5117917;27;41079;-85
2023/07/04 02:50:03;;;;;;;3.60;2.30;;;;;;;17.29;74.17;98585.53;5117700;27;43016;-84
2023/07/04 02:52:31;;;;;;;3.53;2.20;;;;;;;17.28;73.98;98594.53;5117574;27;41716;-86
2023/07/04 02:55:01;;;;;;;2.07;1.90;;;;;;;17.35;74.44;98605.50;5117566;27;40876;-86
2023/07/04 02:57:29;;;;;;;3.70;2.40;;;;;;;17.33;74.60;98600.28;5117547;27;40560;-85
2023/07/04 02:59:59;;;;;;;3.20;2.00;;;;;;;17.22;74.34;98595.09;5135325;27;42881;-86
2023/07/04 03:02:28;;;;;;;2.40;2.20;;;;;;;17.18;74.48;98589.19;5121487;27;41846;-86
2023/07/04 03:04:58;;;;;;;3.37;2.20;;;;;;;17.16;75.68;98590.34;5121282;27;40015;-85
2023/07/04 03:07:28;;;;;;;3.80;2.63;;;;;;;17.06;75.09;98574.28;5138741;27;41769;-86
2023/07/04 03:09:57;;;;;;;3.47;2.57;;;;;;;17.16;75.60;98596.53;5121214;27;42711;-85
2023/07/04 03:12:30;;;;;;;3.80;2.40;;;;;;;17.25;75.49;98618.91;5121419;27;41060;-84
2023/07/04 03:14:59;;;;;;;2.33;2.13;;;;;;;17.15;75.23;98604.69;5121554;27;39522;-85
2023/07/04 03:17:29;;;;;;;3.00;2.27;;;;;;;17.08;75.38;98598.22;5155642;27;42023;-84
2023/07/04 03:19:57;;;;;;;3.23;2.47;;;;;;;17.08;75.09;98608.91;5144693;27;42653;-85
2023/07/04 03:22:26;;;;;;;3.93;2.50;;;;;;;17.02;75.22;98598.81;5123496;27;42236;-85
2023/07/04 03:24:54;;;;;;;3.10;2.40;;;;;;;17.08;75.09;98608.91;5120917;27;40091;-85
2023/07/04 03:27:22;;;;;;;2.43;2.20;;;;;;;17.08;74.91;98614.28;5121597;27;40640;-84
2023/07/04 03:29:51;;;;;;;5.43;2.80;;;;;;;16.72;75.15;98563.19;5121010;27;41474;-85
2023/07/04 03:32:19;;;;;;;4.53;3.07;;;;;;;17.14;75.48;98635.13;5121388;27;42098;-84
2023/07/04 03:34:47;;;;;;;5.53;2.60;;;;;;;17.07;75.42;98623.28;5120462;27;40841;-84
2023/07/04 03:37:15;;;;;;;3.37;2.60;;;;;;;17.16;75.92;98633.16;5135234;27;42050;-85
2023/07/04 03:39:43;;;;;;;2.57;2.37;;;;;;;17.04;76.68;98612.88;5137703;27;42058;-83
2023/07/04 03:42:11;;;;;;;3.83;2.33;;;;;;;17.10;76.24;98617.66;5138486;27;41367;-85
2023/07/04 03:44:39;;;;;;;3.90;2.63;;;;;;;17.22;77.15;98632.56;5121001;27;40128;-86
2023/07/04 03:47:08;;;;;;;2.83;2.10;;;;;;;17.15;76.72;98626.94;5121048;27;40620;-86
2023/07/04 03:49:36;;;;;;;2.67;2.30;;;;;;;17.20;76.68;98626.50;5120580;27;42836;-86
2023/07/04 03:52:05;;;;;;;3.53;2.40;;;;;;;16.98;76.17;98592.88;5137867;27;41055;-86
2023/07/04 03:54:33;;;;;;;3.07;2.57;;;;;;;17.34;76.79;98647.47;5120742;27;39658;-84
2023/07/04 03:57:01;;;;;;;4.33;2.50;;;;;;;17.30;76.49;98635.38;5121157;27;41723;-85
2023/07/04 03:59:29;;;;;;;3.33;2.27;;;;;;;17.33;76.26;98635.09;5120293;27;41630;-85
2023/07/04 04:01:56;;;;;;;3.50;2.50;;;;;;;17.46;76.61;98646.31;5120277;27;42666;-85
2023/07/04 04:04:26;;;;;;;3.40;2.30;;;;;;;17.43;75.75;98643.13;5137623;27;40333;-86
2023/07/04 04:06:56;;;;;;;3.80;2.40;;;;;;;17.50;75.65;98647.72;5137852;27;41918;-85
2023/07/04 04:09:24;;;;;;;2.70;2.50;;;;;;;17.46;75.52;98627.59;5120258;27;41877;-85
2023/07/04 04:11:52;;;;;;;3.40;2.73;;;;;;;17.59;75.39;98644.19;5119997;27;41363;-86
2023/07/04 04:14:20;;;;;;;2.50;2.23;;;;;;;17.55;75.35;98626.75;5119899;27;39928;-85
2023/07/04 04:16:49;;;;;;;2.67;2.20;;;;;;;17.74;74.92;98649.09;5120378;27;40346;-85
2023/07/04 04:19:17;;;;;;;3.77;2.40;;;;;;;17.78;74.14;98647.84;5120063;27;41972;-85
2023/07/04 04:21:48;;;;;;;3.10;2.40;;;;;;;17.80;74.37;98645.88;5120046;27;41066;-86
2023/07/04 04:24:16;;;;;;;3.03;2.70;;;;;;;17.84;74.16;98645.41;5120429;27;40927;-86
2023/07/04 04:26:46;;;;;;;3.93;2.20;;;;;;;17.89;73.97;98648.50;5120207;27;41680;-86
2023/07/04 04:29:15;;;;;;;3.20;2.53;;;;;;;17.97;73.94;98649.59;5137441;27;43207;-85
2023/07/04 04:31:43;;;;;;;2.63;2.17;;;;;;;18.03;73.63;98649.84;5119766;27;42345;-86
2023/07/04 04:34:11;;;;;;;2.77;2.40;;;;;;;17.99;73.24;98639.56;5120034;27;40185;-85
2023/07/04 04:36:39;;;;;;;3.30;2.33;;;;;;;18.19;72.93;98659.91;5119866;27;41866;-86
2023/07/04 04:39:08;;;;;;;2.90;2.50;;;;;;;18.23;72.76;98656.81;5120044;27;41865;-85
2023/07/04 04:41:37;;;;;;;2.80;2.17;;;;;;;18.19;72.47;98644.69;5119721;27;41229;-85
2023/07/04 04:44:05;;;;;;;3.33;2.63;;;;;;;18.46;72.04;98678.69;5137161;27;41210;-86
2023/07/04 04:46:34;;;;;;;3.03;2.40;;;;;;;18.48;71.84;98665.97;5120027;27;40689;-86
2023/07/04 04:49:03;;;;;;;2.57;2.30;;;;;;;18.59;71.88;98675.69;5136865;27;42044;-85
2023/07/04 04:51:32;;;;;;;2.83;2.37;;;;;;;18.64;71.33;98670.72;5119562;27;41615;-85
2023/07/04 04:54:01;;;;;;;3.60;2.30;;;;;;;18.81;71.12;98691.34;5119455;27;39889;-85
2023/07/04 04:56:30;;;;;;;2.27;2.07;;;;;;;18.81;70.89;98680.59;5119942;27;41722;-86
2023/07/04 04:58:58;;;;;;;4.30;2.43;;;;;;;18.99;70.45;98689.53;5119404;27;43252;-86
2023/07/04 05:01:26;;;;;;;3.20;2.63;;;;;;;19.06;70.23;98697.78;5119435;27;41182;-86
2023/07/04 05:03:55;;;;;;;3.07;2.40;;;;;;;19.15;69.60;98696.91;5119554;27;40115;-86
2023/07/04 05:06:26;;;;;;;3.83;2.67;;;;;;;19.15;69.24;98683.47;5119706;27;41822;-87
2023/07/04 05:08:54;;;;;;;3.60;2.47;;;;;;;19.35;68.83;98700.25;5119492;27;41590;-87
2023/07/04 05:11:22;;;;;;;3.60;2.40;;;;;;;19.45;68.61;98701.00;5119751;27;41505;-86
2023/07/04 05:13:52;;;;;;;3.00;2.50;;;;;;;19.47;68.24;98685.56;5119130;27;39758;-86
2023/07/04 05:16:22;;;;;;;3.90;2.87;;;;;;;19.61;68.11;98687.72;5119920;27;41738;-84
2023/07/04 05:18:52;;;;;;;3.67;2.60;;;;;;;19.77;67.45;98710.34;5119173;27;42894;-86
2023/07/04 05:21:21;;;;;;;2.97;2.70;;;;;;;19.87;67.32;98703.88;5136510;27;43476;-89
2023/07/04 05:23:52;;;;;;;4.23;2.60;;;;;;;19.97;66.68;98717.19;5118376;27;40211;-84
2023/07/04 05:26:21;;;;;;;3.70;2.87;;;;;;;20.00;66.38;98703.44;5119356;27;43469;-85
2023/07/04 05:28:51;;;;;;;3.00;2.63;;;;;;;20.19;65.98;98711.25;5118905;27;42140;-86
2023/07/04 05:31:25;;;;;;;3.30;2.70;;;;;;;20.32;65.81;98717.03;5119028;27;40792;-87
2023/07/04 05:33:53;;;;;;;3.03;2.67;;;;;;;20.44;65.30;98723.84;5118795;27;39596;-79
2023/07/04 05:36:23;;;;;;;3.33;2.33;;;;;;;20.54;65.11;98714.81;5118025;27;42143;-80
2023/07/04 05:38:52;;;;;;;4.73;2.70;;;;;;;20.66;64.40;98716.19;5118022;27;41919;-80
2023/07/04 05:41:23;;;;;;;3.87;2.23;;;;;;;20.67;63.82;98707.13;5117833;27;41093;-80
2023/07/04 05:43:53;;;;;;;4.50;3.20;;;;;;;20.88;63.52;98725.53;5135068;27;39879;-80
2023/07/04 05:46:20;;;;;;;3.47;2.90;;;;;;;20.93;62.39;98717.78;5135216;27;40770;-80
2023/07/04 05:48:48;;;;;;;4.07;3.00;;;;;;;21.05;61.67;98728.09;5153697;27;43527;-80
2023/07/04 05:51:21;;;;;;;5.10;3.13;;;;;;;20.90;60.65;98702.81;5135418;27;43244;-77
2023/07/04 05:53:51;;;;;;;4.73;2.97;;;;;;;21.11;60.16;98722.06;5118158;27;39873;-77
2023/07/04 05:56:22;;;;;;;6.17;4.00;;;;;;;21.32;59.28;98745.00;5134944;27;42008;-78
2023/07/04 05:58:53;;;;;;;6.13;2.97;;;;;;;21.40;58.49;98747.69;5117381;27;41907;-80
2023/07/04 06:01:23;;;;;;;4.53;2.90;;;;;;;21.46;58.37;98747.88;5118049;27;41186;-81
2023/07/04 06:03:52;;;;;;;4.83;3.13;;;;;;;21.50;57.65;98741.16;5153657;27;40494;-79
2023/07/04 06:06:21;;;;;;;7.27;3.93;;;;;;;21.69;57.02;98753.44;5135018;27;42645;-77
2023/07/04 06:08:50;;;;;;;6.17;3.37;;;;;;;21.80;56.93;98761.19;5153317;27;43772;-82
2023/07/04 06:11:18;;;;;;;7.10;3.67;;;;;;;21.92;56.71;98764.38;5135104;27;42338;-79
2023/07/04 06:13:46;;;;;;;6.23;3.20;;;;;;;22.03;56.41;98761.38;5134983;27;41376;-79
2023/07/04 06:16:15;;;;;;;4.57;3.10;;;;;;;22.17;55.89;98767.91;5134916;27;41079;-78
2023/07/04 06:18:43;;;;;;;8.23;3.43;;;;;;;22.27;54.94;98763.16;5117098;27;42830;-82
2023/07/04 06:21:13;;;;;;;4.97;3.20;;;;;;;22.38;54.80;98765.50;5153031;27;42761;-79
2023/07/04 06:23:42;;;;;;;5.70;3.47;;;;;;;22.48;53.55;98776.13;5152973;27;41758;-79
2023/07/04 06:26:12;;;;;;;5.37;3.47;;;;;;;22.54;52.95;98768.16;5117443;27;42447;-78
2023/07/04 06:28:40;;;;;;;5.03;3.50;;;;;;;22.70;52.41;98779.91;5134386;27;42861;-82
2023/07/04 06:31:11;;;;;;;7.17;3.70;;;;;;;22.79;52.22;98784.28;5134461;27;42277;-81
2023/07/04 06:33:41;;;;;;;3.90;3.07;;;;;;;22.82;51.72;98782.09;5116803;27;40846;-81
2023/07/04 06:36:09;;;;;;;6.27;3.60;;;;;;;23.04;51.24;98793.13;5152719;27;42605;-80
2023/07/04 06:38:37;;;;;;;5.53;3.67;;;;;;;23.12;50.09;98801.22;5144461;27;42799;-77
2023/07/04 06:41:07;;;;;;;8.23;4.17;;;;;;;23.20;50.15;98799.28;5164539;27;42910;-80
2023/07/04 06:43:36;;;;;;;6.97;3.30;;;;;;;23.33;49.57;98803.28;5134651;27;39946;-82
2023/07/04 06:46:04;;;;;;;7.70;3.70;;;;;;;23.63;48.56;98813.22;5152874;27;42515;-80
2023/07/04 06:48:32;;;;;;;6.47;3.57;;;;;;;23.83;47.83;98822.56;5134205;27;42359;-84
2023/07/04 06:51:03;;;;;;;5.63;3.50;;;;;;;24.04;47.70;98815.63;5134309;27;42777;-79
2023/07/04 06:53:31;;;;;;;6.77;3.30;;;;;;;24.20;46.98;98823.59;5134195;27;39568;-80
2023/07/04 06:56:07;;;;;;;6.77;3.53;;;;;;;24.31;46.99;98825.91;5117115;27;41938;-79
2023/07/04 06:58:37;;;;;;;5.80;3.50;;;;;;;24.37;45.66;98835.13;5116679;27;41790;-81
2023/07/04 07:01:05;;;;;;;5.97;3.20;;;;;;;24.40;45.31;98838.31;5133917;27;41283;-80
2023/07/04 07:03:34;;;;;;;5.60;3.17;;;;;;;24.43;45.07;98832.53;5134004;27;40332;-79
2023/07/04 07:06:04;;;;;;;7.57;3.83;;;;;;;24.45;44.00;98846.75;5133899;27;41760;-80
2023/07/04 07:08:33;;;;;;;7.70;3.50;;;;;;;24.50;43.93;98852.41;5116292;27;44518;-80
2023/07/04 07:11:03;;;;;;;6.20;3.63;;;;;;;24.59;44.39;98848.63;5133618;27;41606;-79
2023/07/04 07:13:31;;;;;;;4.10;3.20;;;;;;;24.70;43.81;98855.44;5116541;27;41465;-78
2023/07/04 07:16:07;;;;;;;6.80;3.50;;;;;;;24.87;43.15;98850.66;5133990;27;42175;-80
2023/07/04 07:18:36;;;;;;;7.30;3.40;;;;;;;24.92;43.19;98848.25;5133535;27;42675;-81
2023/07/04 07:21:07;;;;;;;6.00;3.57;;;;;;;25.13;42.26;98858.34;5133686;27;40952;-81
2023/07/04 07:23:37;;;;;;;5.60;3.37;;;;;;;25.23;41.55;98867.03;5116631;27;41309;-82
2023/07/04 07:26:07;;;;;;;6.87;3.23;;;;;;;25.31;40.59;98872.38;5152514;27;42271;-81
2023/07/04 07:28:38;;;;;;;7.40;3.90;;;;;;;25.37;40.18;98877.84;5133705;27;42591;-80
2023/07/04 07:31:09;;;;;;;3.90;3.40;;;;;;;25.48;40.58;98879.22;5149071;27;43260;-81
2023/07/04 07:33:39;;;;;;;7.60;3.77;;;;;;;25.68;39.82;98879.53;5133542;27;39965;-82
2023/07/04 07:36:15;;;;;;;6.57;3.83;;;;;;;25.88;39.76;98871.56;5133205;27;41731;-79
2023/07/04 07:38:43;;;;;;;4.40;3.50;;;;;;;26.09;39.63;98877.00;5133466;27;42174;-83
2023/07/04 07:41:11;;;;;;;4.83;3.23;;;;;;;26.23;38.35;98888.81;5133593;27;42302;-82
2023/07/04 07:43:40;;;;;;;4.93;2.93;;;;;;;26.45;38.32;98885.09;5133162;27;40844;-80
2023/07/04 07:46:08;;;;;;;5.10;3.73;;;;;;;26.65;37.82;98888.81;5152968;27;42582;-80
2023/07/04 07:48:36;;;;;;;6.70;3.60;;;;;;;27.19;37.05;98885.44;5155479;27;43526;-81
2023/07/04 07:51:06;;;;;;;4.90;3.20;;;;;;;28.05;35.83;98883.03;5137715;27;43028;-82
2023/07/04 07:53:36;;;;;;;4.87;3.47;;;;;;;28.99;34.27;98900.03;5119789;27;39733;-80
2023/07/04 07:56:05;;;;;;;5.30;3.70;;;;;;;29.70;32.96;98896.44;5137541;27;42484;-79
2023/07/04 07:58:33;;;;;;;5.50;3.60;;;;;;;30.57;31.52;98914.84;5155475;27;42778;-79
2023/07/04 08:01:09;;;;;;;4.00;3.60;;;;;;;31.73;30.38;98915.78;5119805;27;42163;-80
2023/07/04 08:03:37;;;;;;;5.60;3.90;;;;;;;33.11;28.67;98917.47;5137695;27;39974;-79
2023/07/04 08:06:05;;;;;;;5.40;3.53;;;;;;;34.39;27.13;98930.84;5120179;27;41782;-81
2023/07/04 08:08:32;;;;;;;4.83;3.67;;;;;;;35.42;25.54;98935.00;5137098;27;42201;-81
2023/07/04 08:11:02;;;;;;;4.00;3.60;;;;;;;36.31;24.48;98941.09;5137153;27;41488;-82
2023/07/04 08:13:29;;;;;;;4.80;3.33;;;;;;;37.05;23.37;98955.00;5136660;27;39966;-81
2023/07/04 08:15:57;;;;;;;4.78;3.50;;;;;;;37.76;22.27;98960.16;5155470;27;41802;-84
2023/07/04 08:18:24;;;;;;;3.90;2.95;;;;;;;38.41;22.29;98945.72;5119754;27;42182;-77
2023/07/04 08:21:00;;;;;;;3.58;3.10;;;;;;;38.83;21.78;98952.94;5136696;27;42594;-80
2023/07/04 08:23:28;;;;;;;5.32;3.88;;;;;;;39.03;21.26;98958.53;5136637;27;40897;-82
2023/07/04 08:25:56;;;;;;;4.22;3.22;;;;;;;38.82;21.79;98933.88;5136994;27;40683;-83
2023/07/04 08:28:26;;;;;;;5.15;3.53;;;;;;;38.62;21.09;98946.59;5137032;27;42674;-82
2023/07/04 08:30:54;;;;;;;4.35;3.38;;;;;;;38.18;21.26;98915.81;5136554;27;42991;-80
2023/07/04 08:33:21;;;;;;;4.28;3.35;;;;;;;37.97;22.05;98939.78;5155201;27;41886;-77
2023/07/04 08:35:57;;;;;;;4.95;3.58;;;;;;;37.45;21.15;98941.75;5154731;27;42807;-80
2023/07/04 08:38:25;;;;;;;3.90;3.55;;;;;;;36.75;22.38;98937.38;5119451;27;43803;-80
2023/07/04 08:40:54;;;;;;;4.72;3.72;;;;;;;36.16;23.14;98923.53;5136979;27;42492;-80
2023/07/04 08:43:35;;;;;;;3.63;3.10;;;;;;;35.53;23.64;98902.91;5118858;27;39889;-84
2023/07/04 08:46:06;;;;;;;4.75;3.83;;;;;;;35.23;24.41;98909.69;5136324;27;40578;-81
2023/07/04 08:48:34;;;;;;;5.90;4.10;;;;;;;34.94;24.40;98908.97;5136040;27;41889;-81
2023/07/04 08:51:04;;;;;;;12.53;4.73;;;;;;;34.84;24.06;98919.84;5136307;27;41257;-81
2023/07/04 08:53:32;;;;;;;4.33;3.93;;;;;;;34.59;24.17;98897.38;5118870;27;40301;-79
2023/07/04 08:56:04;;;;;;;7.97;4.30;;;;;;;34.27;24.23;98908.09;5118838;27;41254;-80
2023/07/04 08:58:40;;;;;;;6.33;4.03;;;;;;;33.85;24.81;98902.91;5149876;27;44187;-78
2023/07/04 09:01:17;;;;;;;6.07;3.90;;;;;;;33.54;23.90;98911.56;5135932;27;41082;-78
2023/07/04 09:03:54;;;;;;;4.57;4.00;;;;;;;33.40;24.32;98899.16;5135579;27;41005;-80
2023/07/04 09:06:31;;;;;;;5.57;3.97;;;;;;;33.55;24.62;98918.72;5132836;27;41751;-79
2023/07/04 09:09:07;;;;;;;5.60;4.20;;;;;;;33.17;24.77;98894.53;5118402;27;41765;-81
2023/07/04 09:11:35;;;;;;;4.83;4.33;;;;;;;33.01;24.98;98907.06;5151346;27;42592;-82
2023/07/04 09:14:12;;;;;;;6.67;4.30;;;;;;;33.06;25.20;98909.09;5136065;27;42139;-80
2023/07/04 09:16:45;;;;;;;5.80;4.03;;;;;;;33.13;24.56;98918.06;5151105;27;41713;-79
2023/07/04 09:19:18;;;;;;;7.10;3.90;;;;;;;33.05;24.45;98923.88;5152039;27;42662;-84
2023/07/04 09:21:46;;;;;;;6.07;3.93;;;;;;;33.05;24.92;98908.25;5118615;27;42407;-81
2023/07/04 09:24:15;;;;;;;7.20;4.37;;;;;;;33.16;24.47;98921.13;5154098;27;40867;-84
2023/07/04 09:26:45;;;;;;;6.13;4.03;;;;;;;33.11;24.37;98896.34;5118664;27;41328;-84
2023/07/04 09:29:18;;;;;;;5.77;4.00;;;;;;;33.67;24.86;98896.72;5133766;27;43612;-79
2023/07/04 09:31:46;;;;;;;5.37;3.90;;;;;;;34.94;23.25;98910.88;5132932;27;42535;-81
2023/07/04 09:34:20;;;;;;;4.43;3.80;;;;;;;35.56;21.60;98896.91;5135179;27;41079;-81
2023/07/04 09:36:51;;;;;;;6.67;4.20;;;;;;;36.19;20.68;98934.03;5135623;27;40479;-80
2023/07/04 09:39:19;;;;;;;5.73;4.27;;;;;;;36.10;21.12;98910.78;5152259;27;42906;-82
2023/07/04 09:41:57;;;;;;;7.30;3.77;;;;;;;36.48;21.11;98932.69;5135051;27;41715;-80
2023/07/04 09:44:31;;;;;;;6.33;4.00;;;;;;;37.18;20.58;98930.81;5151830;27;40672;-81
2023/07/04 09:47:02;;;;;;;6.30;4.43;;;;;;;37.98;19.61;98952.50;5150927;27;41532;-82
2023/07/04 09:49:31;;;;;;;6.13;4.55;;;;;;;38.47;19.36;98932.69;5151844;27;43768;-80
2023/07/04 09:52:02;;;;;;;5.28;4.70;;;;;;;39.26;18.16;98934.09;5153738;27;43170;-80
2023/07/04 09:54:32;;;;;;;4.57;4.13;;;;;;;39.85;18.23;98931.44;5133182;27;41116;-81
2023/07/04 09:57:18;;;;;;;4.60;4.05;;;;;;;40.31;17.90;98922.91;5135335;27;42208;-81
2023/07/04 09:59:47;;;;;;;4.47;3.90;;;;;;;40.73;17.81;98928.69;5126411;27;43137;-78
2023/07/04 10:02:19;;;;;;;5.13;4.40;;;;;;;40.70;17.50;98923.69;5146306;27;42262;-78
2023/07/04 10:04:50;;;;;;;5.22;4.68;;;;;;;40.55;17.29;98930.19;5152229;27;40860;-82
2023/07/04 10:07:20;;;;;;;5.32;4.65;;;;;;;40.13;17.93;98927.97;5135308;27;42447;-80
2023/07/04 10:09:52;;;;;;;5.38;4.43;;;;;;;39.31;17.54;98925.78;5133979;27;41682;-83
2023/07/04 10:12:21;;;;;;;5.90;4.72;;;;;;;38.29;18.72;98920.25;5134908;27;41473;-82
2023/07/04 10:14:53;;;;;;;6.32;4.80;;;;;;;37.55;19.15;98922.44;5135231;27;39838;-80
2023/07/04 10:17:23;;;;;;;5.03;4.35;;;;;;;37.02;19.62;98900.31;5150300;27;42343;-85
2023/07/04 10:19:52;;;;;;;8.32;5.13;;;;;;;36.99;19.81;98922.09;5153075;27;42862;-81
2023/07/04 10:22:25;;;;;;;5.88;5.13;;;;;;;36.82;19.70;98910.38;5134767;27;42878;-80
2023/07/04 10:24:53;;;;;;;7.35;5.18;;;;;;;36.64;19.80;98909.66;5134244;27;41009;-81
2023/07/04 10:27:27;;;;;;;5.30;4.78;;;;;;;36.56;19.83;98901.88;5134785;27;40580;-84
2023/07/04 10:30:00;;;;;;;5.47;4.97;;;;;;;36.34;19.73;98903.88;5151552;27;42929;-79
2023/07/04 10:32:29;;;;;;;5.57;4.77;;;;;;;36.18;20.18;98879.97;5117267;27;41967;-78
2023/07/04 10:34:58;;;;;;;5.90;5.30;;;;;;;36.19;19.47;98906.47;5133827;27;40881;-85
2023/07/04 10:37:30;;;;;;;6.83;6.13;;;;;;;35.40;20.18;98906.88;5134761;27;41234;-81
2023/07/04 10:40:02;;;;;;;6.33;5.73;;;;;;;34.74;19.71;98922.41;5133306;27;42482;-79
2023/07/04 10:42:36;;;;;;;6.83;5.83;;;;;;;34.28;20.28;98904.25;5117163;27;42339;-82
2023/07/04 10:45:08;;;;;;;6.17;5.50;;;;;;;34.20;20.56;98885.41;5132996;27;41107;-79
2023/07/04 10:47:39;;;;;;;6.20;5.60;;;;;;;34.38;21.42;98885.19;5116770;27;42031;-83
2023/07/04 10:50:12;;;;;;;6.50;5.90;;;;;;;34.62;21.11;98890.53;5151436;27;43866;-83
2023/07/04 10:52:43;;;;;;;6.90;6.20;;;;;;;34.76;20.54;98886.38;5117009;27;41589;-79
2023/07/04 10:55:17;;;;;;;7.13;6.43;;;;;;;34.91;20.25;98889.38;5116922;27;39865;-83
2023/07/04 10:57:56;;;;;;;7.50;6.20;;;;;;;34.94;20.19;98886.13;5131265;27;41865;-84
2023/07/04 11:00:35;;;;;;;6.70;6.00;;;;;;;35.01;19.97;98886.75;5116769;27;43345;-81
2023/07/04 11:03:07;;;;;;;7.63;6.50;;;;;;;34.93;19.54;98881.69;5117199;27;41601;-79
2023/07/04 11:05:41;;;;;;;7.27;6.30;;;;;;;34.90;20.03;98887.69;5117036;27;40158;-82
2023/07/04 11:08:15;;;;;;;7.67;6.80;;;;;;;34.93;20.23;98878.94;5117012;27;40444;-83
2023/07/04 11:10:45;;;;;;;6.93;6.30;;;;;;;35.15;20.55;98862.44;5116828;27;42761;-81
2023/07/04 11:13:16;;;;;;;6.80;6.20;;;;;;;35.24;20.46;98881.03;5116962;27;41286;-80
2023/07/04 11:15:52;;;;;;;7.20;6.50;;;;;;;35.36;20.35;98867.16;5116948;27;40190;-79
2023/07/04 11:18:24;;;;;;;8.00;7.27;;;;;;;35.36;19.76;98875.44;5133716;27;41732;-82
2023/07/04 11:20:55;;;;;;;7.90;6.93;;;;;;;35.36;19.84;98880.13;5134762;27;42393;-82
2023/07/04 11:23:24;;;;;;;8.90;7.33;;;;;;;35.49;20.20;98875.03;5120609;27;41669;-84
2023/07/04 11:26:04;;;;;;;8.23;7.13;;;;;;;35.55;19.47;98873.19;5120514;27;40027;-83
2023/07/04 11:28:45;;;;;;;7.83;7.13;;;;;;;35.63;19.81;98872.72;5153027;27;41910;-84
2023/07/04 11:31:30;;;;;;;7.80;7.00;;;;;;;35.51;19.45;98875.63;5137809;27;41784;-84
2023/07/04 11:34:13;;;;;;;8.50;7.00;;;;;;;35.60;19.23;98873.28;5153521;27;42384;-80
2023/07/04 11:36:49;;;;;;;8.27;7.50;;;;;;;35.68;19.24;98875.56;5137232;27;41826;-79
2023/07/04 11:39:29;;;;;;;8.50;7.70;;;;;;;35.68;18.99;98844.41;5120280;27;40718;-83
2023/07/04 11:41:57;;;;;;;8.17;7.43;;;;;;;35.94;18.81;98869.28;5152708;27;43498;-82
2023/07/04 11:44:29;;;;;;;8.37;7.47;;;;;;;35.45;18.94;98873.06;5155501;27;43315;-81
2023/07/04 11:47:02;;;;;;;7.80;7.10;;;;;;;35.20;19.04;98871.63;5152775;27;42050;-82
2023/07/04 11:49:33;;;;;;;7.33;6.63;;;;;;;35.72;19.29;98871.22;5119702;27;40741;-81